Arkholme, United Kingdom
Current Conditions -  °F | °C
As of 12:20 PM on Thursday 29 Jan 2015 (Local Time) from EGNO Reporting Station
Scattered Clouds Scattered Clouds  
Wind Chill: -1°   Ceiling: Unl
Heat Index:   Visibility: 6mi
Dew Point: -1°   Wind: 17mph
Humidity: 70%   Direction: 280°W
Pressure: 28.85"   Gusts: NA
Location:  54.13°N, 2.75°W
Report Text: EGNO 291220Z 28015KT 9999 FEW015 SCT031 04/M01 Q0977
Loading
Personal Weather Stations






























Interactive Weather Map New forecast layout! Learn more

10-Day Weather Forecast

Advertisements
Track Severe Weather on mobile